Saddle River, New Jersey
Current Conditions -  °F | °C
As of 11:51 PM on Thursday 30 Oct 2014 (Local Time) from KTEB Reporting Station
Clear Clear  
Wind Chill: 45°   Ceiling: Unl
Heat Index: 45°   Visibility: 10mi
Dew Point: 34°   Wind: 3mph
Humidity: 65%   Direction: 330°NNW
Pressure: 30.02"   Gusts: NA
Location:  41.03°N, 74.1°W
Report Text: KTEB 310351Z 33003KT 10SM CLR 07/01 A3002 RMK AO2 SLP164 T00720011
Loading
Personal Weather Stations






























Interactive Weather Map New forecast layout! Learn more

10-Day Weather Forecast

Advertisements
Track Severe Weather on mobile